createdAt,value
2022-08-28T00:22:49.800Z,15.8
2022-08-28T00:42:51.471Z,15.6
2022-08-28T00:52:52.500Z,15.6
2022-08-28T01:02:53.088Z,15.5
2022-08-28T01:12:53.338Z,15.6
2022-08-28T02:02:55.716Z,14.9
2022-08-28T02:12:59.048Z,14.8
2022-08-28T02:22:56.545Z,14.7
2022-08-28T03:02:57.706Z,14.1
2022-08-28T03:12:58.432Z,13.9
2022-08-28T03:22:58.712Z,13.8
2022-08-28T03:32:58.871Z,13.6
2022-08-28T03:42:59.231Z,13.4
2022-08-28T04:03:00.386Z,13.2
2022-08-28T04:13:00.692Z,13.1
2022-08-28T04:23:01.633Z,12.9
2022-08-28T04:33:01.825Z,12.9
2022-08-28T04:53:02.850Z,12.8
2022-08-28T05:03:03.554Z,12.8
2022-08-28T05:43:06.417Z,13
2022-08-28T06:23:08.912Z,14
2022-08-28T06:33:09.025Z,14.3
2022-08-28T06:53:10.049Z,14.7
2022-08-28T07:03:10.339Z,15.1
2022-08-28T07:13:10.686Z,15.6
2022-08-28T07:23:11.676Z,16.1
2022-08-28T07:33:11.994Z,16.4
2022-08-28T07:43:12.964Z,16.7
2022-08-28T07:53:13.762Z,17.8
2022-08-28T08:03:14.509Z,18.1
2022-08-28T08:13:15.411Z,18.2
2022-08-28T08:23:16.417Z,18.6
2022-08-28T08:33:16.659Z,18.9
2022-08-28T08:53:17.126Z,19.2
2022-08-28T09:13:18.514Z,19
2022-08-28T09:23:18.985Z,19.2
2022-08-28T09:33:19.309Z,20
2022-08-28T09:43:19.931Z,20.4
2022-08-28T09:53:20.573Z,20.9
2022-08-28T10:03:21.586Z,20.4
2022-08-28T10:13:21.794Z,19.9
2022-08-28T10:33:22.837Z,21
2022-08-28T10:43:23.601Z,20.5
2022-08-28T11:03:34.212Z,21.6
2022-08-28T11:13:25.872Z,21.5
2022-08-28T11:23:26.757Z,21.8
2022-08-28T11:43:27.729Z,21.8
2022-08-28T11:53:28.500Z,21.9
2022-08-28T12:03:28.916Z,21.8
2022-08-28T12:13:29.337Z,22.1
2022-08-28T12:23:29.889Z,22.2
2022-08-28T12:33:30.878Z,22.3
2022-08-28T12:43:31.218Z,22.1
2022-08-28T12:53:31.461Z,22
2022-08-28T13:03:32.290Z,22.1
2022-08-28T13:33:33.818Z,22
2022-08-28T13:53:35.051Z,22.9
2022-08-28T14:03:36.113Z,23
2022-08-28T14:23:37.047Z,22.7
2022-08-28T14:33:37.180Z,23
2022-08-28T14:43:37.882Z,22.5
2022-08-28T14:53:38.882Z,22.8
2022-08-28T15:03:39.385Z,22.9
2022-08-28T15:13:40.071Z,22.7
2022-08-28T15:33:45.159Z,22.5
2022-08-28T15:43:44.826Z,22.2
2022-08-28T15:53:43.473Z,22.3
2022-08-28T16:03:43.723Z,22.3
2022-08-28T16:13:44.151Z,22.4
2022-08-28T16:23:44.604Z,22.2
2022-08-28T16:33:45.108Z,22.3
2022-08-28T16:43:45.473Z,22.1
2022-08-28T16:53:45.755Z,21.7
2022-08-28T17:03:46.696Z,21.4
2022-08-28T17:23:47.706Z,21.1
2022-08-28T17:33:48.701Z,20.9
2022-08-28T17:43:49.175Z,20.7
2022-08-28T17:53:49.959Z,20.5
2022-08-28T18:13:51.370Z,20
2022-08-28T18:23:52.086Z,19.8
2022-08-28T18:33:52.506Z,19.5
2022-08-28T18:43:53.574Z,19.2
2022-08-28T18:53:53.864Z,18.9
2022-08-28T19:03:54.782Z,18.6
2022-08-28T19:13:55.279Z,18.4
2022-08-28T19:23:56.490Z,18.2
2022-08-28T19:33:56.835Z,18
2022-08-28T19:53:58.537Z,17.6
2022-08-28T20:13:59.076Z,17.2
2022-08-28T20:23:59.462Z,17
2022-08-28T20:34:00.419Z,16.8
2022-08-28T20:44:00.915Z,16.6
2022-08-28T20:54:01.827Z,16.4
2022-08-28T21:04:02.213Z,16.2
2022-08-28T21:14:02.955Z,15.8
2022-08-28T21:24:03.859Z,15.6
2022-08-28T21:34:04.754Z,15.4
2022-08-28T21:44:05.087Z,15.2
2022-08-28T22:14:06.284Z,14.7
2022-08-28T22:24:06.439Z,14.3
2022-08-28T22:34:07.400Z,14
2022-08-28T22:54:08.578Z,13.5
2022-08-28T23:04:09.640Z,13.4
2022-08-28T23:14:10.298Z,13.2
2022-08-28T23:24:11.186Z,13.2
2022-08-28T23:34:11.823Z,13.5
2022-08-28T23:54:12.854Z,13
